CMA CGM La Boussole — A8FZ6 — position and weather

sailwx.info

Track history (hours):
 
Tides and Currents Weather Stations Pressure Air Temp Water Temp Dewpoint Dewpoint Depression Visibility Wind Speed Wind Dir Waves Ship Positions

CMA CGM La Boussole

Last reported at 2015-Jan-27 16:27 UTC. Time now 2015-Jan-27 16:56 UTC.
Position N 35°57' W 005°30'.

Length 210.1 m; beam 30.2 m; draft 11.5 m.

Type: Ship (hazmat cat D). MMSI: 636090821.

Date/timePositionNaut miles runAvg speedWind from/ knotsBaromVisibWave heightAir tempDewpointWater temp
2015-Jan-27 16:27N 35°57' W 005°30'1011.1
2015-Jan-27 15:33N 36°01' W 005°20'19713.8
2015-Jan-27 01:14N 36°58' W 001°25'1114.8
2015-Jan-27 00:30N 37°05' W 001°14'1414.8
2015-Jan-26 23:33N 37°15' W 001°02'1515.4
2015-Jan-26 22:33N 37°25' W 000°47'1515.4
2015-Jan-26 21:33N 37°35' W 000°33'1514.8
2015-Jan-26 20:33N 37°48' W 000°22'1514.9
2015-Jan-26 19:33N 38°00' W 000°12'8512.2
2015-Jan-26 12:33N 39°25' W 000°17'2 2.1
2015-Jan-26 11:31N 39°27' W 000°19'0 0.0
2015-Jan-26 10:31N 39°27' W 000°19'0 0.0
2015-Jan-26 09:33N 39°27' W 000°19'0 0.0
2015-Jan-26 08:33N 39°27' W 000°19'0 0.0
2015-Jan-26 07:33N 39°27' W 000°19'0 0.0
2015-Jan-26 06:29N 39°27' W 000°19'0 0.0
2015-Jan-26 05:32N 39°27' W 000°19'0 0.0
2015-Jan-26 04:31N 39°27' W 000°19'0 0.0
2015-Jan-26 03:31N 39°27' W 000°19'0 0.0
2015-Jan-26 02:33N 39°27' W 000°19'0 0.0
2015-Jan-26 01:33N 39°27' W 000°19'0 0.0
2015-Jan-26 00:33N 39°27' W 000°19'3 3.2
2015-Jan-25 23:34N 39°25' W 000°16'1411.9
2015-Jan-25 22:22N 39°30' E 000°01'5414.1
2015-Jan-25 18:32N 39°58' E 001°02'1414.4
2015-Jan-25 17:33N 40°10' E 001°12'1514.6
2015-Jan-25 16:33N 40°22' E 001°22'1414.2
2015-Jan-25 15:33N 40°34' E 001°33'1413.9
2015-Jan-25 14:33N 40°45' E 001°44'1414.0
2015-Jan-25 13:33N 40°57' E 001°53'1713.8
2015-Jan-25 12:18N 41°11' E 002°06'10 1.0
2015-Jan-25 02:16N 41°21' E 002°10'2 3.1
2015-Jan-25 01:29N 41°19' E 002°10'2912.1
2015-Jan-24 23:05N 41°26' E 002°48'3120.1
2015-Jan-24 21:33N 41°47' E 003°18'4320.7
2015-Jan-24 19:28N 42°22' E 003°53'3719.0
2015-Jan-24 17:32N 42°47' E 004°29'1919.0
2015-Jan-24 16:34N 42°60' E 004°47'1918.7
2015-Jan-24 15:33N 43°16' E 004°60'1010.4
2015-Jan-24 14:33N 43°24' E 004°51'0 0.0
2015-Jan-24 13:31N 43°24' E 004°51'0 0.0
2015-Jan-24 12:31N 43°24' E 004°51'0 0.0
2015-Jan-24 11:33N 43°24' E 004°51'0 0.0
2015-Jan-24 10:33N 43°24' E 004°51'0 0.0
2015-Jan-24 09:32N 43°24' E 004°51'0 0.0
2015-Jan-24 08:32N 43°24' E 004°51'0 0.0
2015-Jan-24 07:32N 43°24' E 004°51'0 0.0
2015-Jan-24 06:34N 43°24' E 004°51'0 0.0
2015-Jan-24 05:28N 43°24' E 004°51'0 0.0
2015-Jan-24 04:31N 43°24' E 004°51'3 2.9
2015-Jan-24 03:33N 43°24' E 004°55'8 8.3
2015-Jan-24 02:33N 43°17' E 005°00'1515.2
2015-Jan-24 01:33N 43°06' E 005°16'4017.6
2015-Jan-23 23:17N 42°50' E 006°06'1317.3
2015-Jan-23 22:33N 42°50' E 006°23'1716.8
2015-Jan-23 21:33N 42°57' E 006°43'1818.0
2015-Jan-23 20:33N 43°08' E 007°03'1817.6
2015-Jan-23 19:33N 43°19' E 007°22'5518.2
2015-Jan-23 16:33N 43°53' E 008°22'1818.2
2015-Jan-23 15:33N 44°06' E 008°39'1817.9
2015-Jan-23 14:33N 44°19' E 008°56'6 5.8
2015-Jan-23 13:34N 44°24' E 008°54'0 0.0
2015-Jan-23 12:33N 44°24' E 008°54'0 0.0
2015-Jan-23 11:33N 44°24' E 008°54'0 0.0
2015-Jan-23 10:29N 44°24' E 008°54'0 0.0
2015-Jan-23 09:32N 44°24' E 008°54'0 0.0
2015-Jan-23 08:28N 44°24' E 008°54'0 0.0
2015-Jan-23 07:31N 44°24' E 008°54'0 0.0
2015-Jan-23 06:33N 44°24' E 008°54'0 0.0
2015-Jan-23 05:33N 44°24' E 008°54'0 0.0
2015-Jan-23 04:33N 44°24' E 008°54'0 0.0
2015-Jan-23 03:26N 44°24' E 008°54'0 0.0
2015-Jan-23 02:32N 44°24' E 008°54'0 0.0
2015-Jan-23 01:31N 44°24' E 008°54'0 0.0
2015-Jan-23 00:31N 44°24' E 008°54'0 0.0
2015-Jan-22 23:33N 44°24' E 008°54'0 0.0
2015-Jan-22 22:33N 44°24' E 008°54'0 0.0
2015-Jan-22 21:33N 44°24' E 008°54'0 0.0
2015-Jan-22 20:32N 44°24' E 008°54'0 0.0
2015-Jan-22 19:34N 44°24' E 008°54'4 3.8
2015-Jan-22 18:34N 44°22' E 008°58'5 5.0
2015-Jan-22 17:34N 44°17' E 009°00'8 8.4
2015-Jan-22 16:34N 44°09' E 009°00'2 1.8
2015-Jan-22 15:34N 44°10' E 009°01'2 2.4
2015-Jan-22 14:34N 44°13' E 009°01'2 2.2
2015-Jan-22 13:33N 44°15' E 009°01'2 1.7
2015-Jan-22 12:33N 44°17' E 009°01'1211.7
2015-Jan-22 11:34N 44°08' E 009°13'1414.3
2015-Jan-22 10:34N 43°57' E 009°25'1414.5
2015-Jan-22 09:34N 43°46' E 009°38'1514.8
2015-Jan-22 08:34N 43°35' E 009°51'1313.4
2015-Jan-22 07:34N 43°31' E 010°09'7 7.4
2015-Jan-22 06:33N 43°34' E 010°18'0 0.1
2015-Jan-22 05:33N 43°34' E 010°18'0 0.0
2015-Jan-22 04:33N 43°34' E 010°18'0 0.0
2015-Jan-22 03:32N 43°34' E 010°18'0 0.0
2015-Jan-22 02:32N 43°34' E 010°18'0 0.0
2015-Jan-22 01:32N 43°34' E 010°18'0 0.0
2015-Jan-22 00:31N 43°34' E 010°18'0 0.0
2015-Jan-21 23:31N 43°34' E 010°18'0 0.0
2015-Jan-21 22:48N 43°34' E 010°18'0 0.0
2015-Jan-21 22:45N 43°34' E 010°18'0 0.0
2015-Jan-21 22:30N 43°34' E 010°18'0 0.0
2015-Jan-21 21:33N 43°34' E 010°18'0 0.0
2015-Jan-21 20:32N 43°34' E 010°18'0 0.0
2015-Jan-21 19:32N 43°34' E 010°18'0 0.0
2015-Jan-21 18:32N 43°34' E 010°18'0 0.0
2015-Jan-21 17:31N 43°34' E 010°18'0 0.0
2015-Jan-21 16:31N 43°34' E 010°18'0 0.0
2015-Jan-21 15:33N 43°34' E 010°18'0 0.0
2015-Jan-21 14:33N 43°34' E 010°18'0 0.0
2015-Jan-21 13:32N 43°34' E 010°18'0 0.0
2015-Jan-21 12:29N 43°34' E 010°18'0 0.0
2015-Jan-21 11:29N 43°34' E 010°18'0 0.0
2015-Jan-21 10:31N 43°34' E 010°18'0 0.0
2015-Jan-21 09:31N 43°34' E 010°18'0 0.0
2015-Jan-21 08:33N 43°34' E 010°18'0 0.0
2015-Jan-21 07:33N 43°34' E 010°18'4 3.7
2015-Jan-21 06:33N 43°31' E 010°16'1211.6
2015-Jan-21 05:33N 43°23' E 010°05'1918.9
2015-Jan-21 04:33N 43°14' E 009°42'2319.7
2015-Jan-21 03:22N 43°06' E 009°12'34119.9
2015-Jan-20 10:12N 39°16' E 003°37'1320.4
2015-Jan-20 09:33N 39°09' E 003°22'2121.0
2015-Jan-20 08:33N 38°58' E 002°59'2221.3
2015-Jan-20 07:33N 38°49' E 002°34'2120.8
2015-Jan-20 06:32N 38°39' E 002°10'16120.2
2015-Jan-19 22:33N 37°20' W 000°48'232 9.7
2015-Jan-18 22:33N 35°60' W 005°20'  
Track history (hours):
 
Tides and Currents Weather Stations Pressure Air Temp Water Temp Dewpoint Dewpoint Depression Visibility Wind Speed Wind Dir Waves Ship Positions

CMA CGM La Boussole

Last reported at 2015-Jan-27 16:27 UTC. Time now 2015-Jan-27 16:56 UTC.
Position N 35°57' W 005°30'.

Length 210.1 m; beam 30.2 m; draft 11.5 m.

Type: Ship (hazmat cat D). MMSI: 636090821.

Date/timePositionNaut miles runAvg speedWind from/ knotsBaromVisibWave heightAir tempDewpointWater temp
2015-Jan-27 16:27N 35°57' W 005°30'1011.1
2015-Jan-27 15:33N 36°01' W 005°20'19713.8
2015-Jan-27 01:14N 36°58' W 001°25'1114.8
2015-Jan-27 00:30N 37°05' W 001°14'1414.8
2015-Jan-26 23:33N 37°15' W 001°02'1515.4
2015-Jan-26 22:33N 37°25' W 000°47'1515.4
2015-Jan-26 21:33N 37°35' W 000°33'1514.8
2015-Jan-26 20:33N 37°48' W 000°22'1514.9
2015-Jan-26 19:33N 38°00' W 000°12'8512.2
2015-Jan-26 12:33N 39°25' W 000°17'2 2.1
2015-Jan-26 11:31N 39°27' W 000°19'0 0.0
2015-Jan-26 10:31N 39°27' W 000°19'0 0.0
2015-Jan-26 09:33N 39°27' W 000°19'0 0.0
2015-Jan-26 08:33N 39°27' W 000°19'0 0.0
2015-Jan-26 07:33N 39°27' W 000°19'0 0.0
2015-Jan-26 06:29N 39°27' W 000°19'0 0.0
2015-Jan-26 05:32N 39°27' W 000°19'0 0.0
2015-Jan-26 04:31N 39°27' W 000°19'0 0.0
2015-Jan-26 03:31N 39°27' W 000°19'0 0.0
2015-Jan-26 02:33N 39°27' W 000°19'0 0.0
2015-Jan-26 01:33N 39°27' W 000°19'0 0.0
2015-Jan-26 00:33N 39°27' W 000°19'3 3.2
2015-Jan-25 23:34N 39°25' W 000°16'1411.9
2015-Jan-25 22:22N 39°30' E 000°01'5414.1
2015-Jan-25 18:32N 39°58' E 001°02'1414.4
2015-Jan-25 17:33N 40°10' E 001°12'1514.6
2015-Jan-25 16:33N 40°22' E 001°22'1414.2
2015-Jan-25 15:33N 40°34' E 001°33'1413.9
2015-Jan-25 14:33N 40°45' E 001°44'1414.0
2015-Jan-25 13:33N 40°57' E 001°53'1713.8
2015-Jan-25 12:18N 41°11' E 002°06'10 1.0
2015-Jan-25 02:16N 41°21' E 002°10'2 3.1
2015-Jan-25 01:29N 41°19' E 002°10'2912.1
2015-Jan-24 23:05N 41°26' E 002°48'3120.1
2015-Jan-24 21:33N 41°47' E 003°18'4320.7
2015-Jan-24 19:28N 42°22' E 003°53'3719.0
2015-Jan-24 17:32N 42°47' E 004°29'1919.0
2015-Jan-24 16:34N 42°60' E 004°47'1918.7
2015-Jan-24 15:33N 43°16' E 004°60'1010.4
2015-Jan-24 14:33N 43°24' E 004°51'0 0.0
2015-Jan-24 13:31N 43°24' E 004°51'0 0.0
2015-Jan-24 12:31N 43°24' E 004°51'0 0.0
2015-Jan-24 11:33N 43°24' E 004°51'0 0.0
2015-Jan-24 10:33N 43°24' E 004°51'0 0.0
2015-Jan-24 09:32N 43°24' E 004°51'0 0.0
2015-Jan-24 08:32N 43°24' E 004°51'0 0.0
2015-Jan-24 07:32N 43°24' E 004°51'0 0.0
2015-Jan-24 06:34N 43°24' E 004°51'0 0.0
2015-Jan-24 05:28N 43°24' E 004°51'0 0.0
2015-Jan-24 04:31N 43°24' E 004°51'3 2.9
2015-Jan-24 03:33N 43°24' E 004°55'8 8.3
2015-Jan-24 02:33N 43°17' E 005°00'1515.2
2015-Jan-24 01:33N 43°06' E 005°16'4017.6
2015-Jan-23 23:17N 42°50' E 006°06'1317.3
2015-Jan-23 22:33N 42°50' E 006°23'1716.8
2015-Jan-23 21:33N 42°57' E 006°43'1818.0
2015-Jan-23 20:33N 43°08' E 007°03'1817.6
2015-Jan-23 19:33N 43°19' E 007°22'5518.2
2015-Jan-23 16:33N 43°53' E 008°22'1818.2
2015-Jan-23 15:33N 44°06' E 008°39'1817.9
2015-Jan-23 14:33N 44°19' E 008°56'6 5.8
2015-Jan-23 13:34N 44°24' E 008°54'0 0.0
2015-Jan-23 12:33N 44°24' E 008°54'0 0.0
2015-Jan-23 11:33N 44°24' E 008°54'0 0.0
2015-Jan-23 10:29N 44°24' E 008°54'0 0.0
2015-Jan-23 09:32N 44°24' E 008°54'0 0.0
2015-Jan-23 08:28N 44°24' E 008°54'0 0.0
2015-Jan-23 07:31N 44°24' E 008°54'0 0.0
2015-Jan-23 06:33N 44°24' E 008°54'0 0.0
2015-Jan-23 05:33N 44°24' E 008°54'0 0.0
2015-Jan-23 04:33N 44°24' E 008°54'0 0.0
2015-Jan-23 03:26N 44°24' E 008°54'0 0.0
2015-Jan-23 02:32N 44°24' E 008°54'0 0.0
2015-Jan-23 01:31N 44°24' E 008°54'0 0.0
2015-Jan-23 00:31N 44°24' E 008°54'0 0.0
2015-Jan-22 23:33N 44°24' E 008°54'0 0.0
2015-Jan-22 22:33N 44°24' E 008°54'0 0.0
2015-Jan-22 21:33N 44°24' E 008°54'0 0.0
2015-Jan-22 20:32N 44°24' E 008°54'0 0.0
2015-Jan-22 19:34N 44°24' E 008°54'4 3.8
2015-Jan-22 18:34N 44°22' E 008°58'5 5.0
2015-Jan-22 17:34N 44°17' E 009°00'8 8.4
2015-Jan-22 16:34N 44°09' E 009°00'2 1.8
2015-Jan-22 15:34N 44°10' E 009°01'2 2.4
2015-Jan-22 14:34N 44°13' E 009°01'2 2.2
2015-Jan-22 13:33N 44°15' E 009°01'2 1.7
2015-Jan-22 12:33N 44°17' E 009°01'1211.7
2015-Jan-22 11:34N 44°08' E 009°13'1414.3
2015-Jan-22 10:34N 43°57' E 009°25'1414.5
2015-Jan-22 09:34N 43°46' E 009°38'1514.8
2015-Jan-22 08:34N 43°35' E 009°51'1313.4
2015-Jan-22 07:34N 43°31' E 010°09'7 7.4
2015-Jan-22 06:33N 43°34' E 010°18'0 0.1
2015-Jan-22 05:33N 43°34' E 010°18'0 0.0
2015-Jan-22 04:33N 43°34' E 010°18'0 0.0
2015-Jan-22 03:32N 43°34' E 010°18'0 0.0
2015-Jan-22 02:32N 43°34' E 010°18'0 0.0
2015-Jan-22 01:32N 43°34' E 010°18'0 0.0
2015-Jan-22 00:31N 43°34' E 010°18'0 0.0
2015-Jan-21 23:31N 43°34' E 010°18'0 0.0
2015-Jan-21 22:48N 43°34' E 010°18'0 0.0
2015-Jan-21 22:45N 43°34' E 010°18'0 0.0
2015-Jan-21 22:30N 43°34' E 010°18'0 0.0
2015-Jan-21 21:33N 43°34' E 010°18'0 0.0
2015-Jan-21 20:32N 43°34' E 010°18'0 0.0
2015-Jan-21 19:32N 43°34' E 010°18'0 0.0
2015-Jan-21 18:32N 43°34' E 010°18'0 0.0
2015-Jan-21 17:31N 43°34' E 010°18'0 0.0
2015-Jan-21 16:31N 43°34' E 010°18'0 0.0
2015-Jan-21 15:33N 43°34' E 010°18'0 0.0
2015-Jan-21 14:33N 43°34' E 010°18'0 0.0
2015-Jan-21 13:32N 43°34' E 010°18'0 0.0
2015-Jan-21 12:29N 43°34' E 010°18'0 0.0
2015-Jan-21 11:29N 43°34' E 010°18'0 0.0
2015-Jan-21 10:31N 43°34' E 010°18'0 0.0
2015-Jan-21 09:31N 43°34' E 010°18'0 0.0
2015-Jan-21 08:33N 43°34' E 010°18'0 0.0
2015-Jan-21 07:33N 43°34' E 010°18'4 3.7
2015-Jan-21 06:33N 43°31' E 010°16'1211.6
2015-Jan-21 05:33N 43°23' E 010°05'1918.9
2015-Jan-21 04:33N 43°14' E 009°42'2319.7
2015-Jan-21 03:22N 43°06' E 009°12'34119.9
2015-Jan-20 10:12N 39°16' E 003°37'1320.4
2015-Jan-20 09:33N 39°09' E 003°22'2121.0
2015-Jan-20 08:33N 38°58' E 002°59'2221.3
2015-Jan-20 07:33N 38°49' E 002°34'2120.8
2015-Jan-20 06:32N 38°39' E 002°10'16120.2
2015-Jan-19 22:33N 37°20' W 000°48'232 9.7
2015-Jan-18 22:33N 35°60' W 005°20'  

Dump ship's entire track history